createdAt,value
2022-10-30T00:02:24.633Z,99022.63
2022-10-30T00:04:51.127Z,99027.75
2022-10-30T00:07:17.550Z,99025.34
2022-10-30T00:09:43.937Z,99020.97
2022-10-30T00:12:10.363Z,99015.03
2022-10-30T00:14:36.872Z,99022.44
2022-10-30T00:17:03.332Z,99022.53
2022-10-30T00:19:29.754Z,99021.22
2022-10-30T00:24:23.285Z,99023.09
2022-10-30T00:26:49.786Z,99015.75
2022-10-30T00:29:16.165Z,99018.53
2022-10-30T00:31:42.533Z,99021.78
2022-10-30T00:34:08.835Z,99019.19
2022-10-30T00:36:35.825Z,99019.66
2022-10-30T00:39:02.354Z,99023.66
2022-10-30T00:41:28.861Z,99006.47
2022-10-30T00:43:55.163Z,99013.53
2022-10-30T00:46:28.130Z,99019.00
2022-10-30T00:49:10.596Z,99011.94
2022-10-30T00:51:38.973Z,99020.03
2022-10-30T00:54:07.247Z,99010.47
2022-10-30T00:56:34.116Z,99011.88
2022-10-30T00:59:02.999Z,99005.53
2022-10-30T01:01:32.331Z,99001.63
2022-10-30T01:04:00.176Z,99001.47
2022-10-30T01:06:28.827Z,98993.75
2022-10-30T01:08:58.979Z,98991.88
2022-10-30T01:11:27.002Z,98990.88
2022-10-30T01:13:55.094Z,98996.72
2022-10-30T01:16:21.389Z,98989.94
2022-10-30T01:19:06.811Z,98985.75
2022-10-30T01:21:48.514Z,98979.72
2022-10-30T01:24:47.969Z,98984.38
2022-10-30T01:27:33.843Z,98980.47
2022-10-30T01:30:22.743Z,98979.91
2022-10-30T01:32:58.732Z,98986.00
2022-10-30T01:35:47.105Z,98977.63
2022-10-30T01:38:35.452Z,98983.56
2022-10-30T01:41:02.095Z,98973.56
2022-10-30T01:43:28.570Z,98976.69
2022-10-30T01:46:15.696Z,98973.53
2022-10-30T01:48:42.011Z,98968.31
2022-10-30T01:51:24.530Z,98971.38
2022-10-30T01:53:51.206Z,98969.03
2022-10-30T01:56:23.621Z,98971.06
2022-10-30T01:58:55.149Z,98958.28
2022-10-30T02:01:23.800Z,98961.19
2022-10-30T02:03:51.216Z,98956.28
2022-10-30T02:06:18.909Z,98962.19
2022-10-30T02:08:46.575Z,98960.38
2022-10-30T02:11:15.094Z,98956.53
2022-10-30T02:13:41.897Z,98958.41
2022-10-30T02:16:09.198Z,98961.91
2022-10-30T02:18:35.921Z,98952.66
2022-10-30T02:21:02.873Z,98960.16
2022-10-30T02:23:29.276Z,98963.72
2022-10-30T02:25:55.715Z,98955.00
2022-10-30T02:28:22.070Z,98955.84
2022-10-30T02:30:48.707Z,98954.47
2022-10-30T02:33:15.195Z,98952.59
2022-10-30T02:35:41.646Z,98952.09
2022-10-30T02:38:07.994Z,98957.91
2022-10-30T02:40:34.365Z,98957.91
2022-10-30T02:43:01.903Z,98951.44
2022-10-30T02:45:29.297Z,98957.84
2022-10-30T02:47:56.217Z,98958.03
2022-10-30T02:50:22.921Z,98956.59
2022-10-30T02:52:51.264Z,98952.91
2022-10-30T02:55:17.871Z,98952.19
2022-10-30T02:57:44.446Z,98953.38
2022-10-30T03:00:11.358Z,98960.31
2022-10-30T03:02:37.746Z,98951.22
2022-10-30T03:05:04.286Z,98956.97
2022-10-30T03:07:31.563Z,98956.59
2022-10-30T03:09:57.948Z,98953.63
2022-10-30T03:12:24.330Z,98952.69
2022-10-30T03:15:00.149Z,98948.25
2022-10-30T03:17:35.961Z,98951.97
2022-10-30T03:20:02.372Z,98950.13
2022-10-30T03:22:29.837Z,98956.97
2022-10-30T03:24:57.743Z,98955.38
2022-10-30T03:27:24.046Z,98959.28
2022-10-30T03:29:50.571Z,98963.88
2022-10-30T03:32:16.967Z,98958.78
2022-10-30T03:34:46.858Z,98959.38
2022-10-30T03:37:13.223Z,98959.28
2022-10-30T03:39:39.857Z,98961.94
2022-10-30T03:42:06.225Z,98958.84
2022-10-30T03:44:32.617Z,98962.28
2022-10-30T03:46:59.056Z,98961.28
2022-10-30T03:49:32.616Z,98960.47
2022-10-30T03:52:01.410Z,98963.09
2022-10-30T03:54:27.798Z,98957.31
2022-10-30T03:56:54.291Z,98963.72
2022-10-30T03:59:22.340Z,98960.97
2022-10-30T04:02:10.414Z,98955.59
2022-10-30T04:04:37.042Z,98956.47
2022-10-30T04:07:03.387Z,98958.69
2022-10-30T04:09:29.799Z,98952.66
2022-10-30T04:11:56.438Z,98962.56
2022-10-30T04:14:22.822Z,98955.25
2022-10-30T04:16:49.160Z,98957.28
2022-10-30T04:19:15.582Z,98957.72
2022-10-30T04:21:47.646Z,98960.97
2022-10-30T04:24:16.732Z,98955.25
2022-10-30T04:26:44.995Z,98959.41
2022-10-30T04:29:11.473Z,98958.44
2022-10-30T04:31:37.805Z,98959.53
2022-10-30T04:34:04.170Z,98952.78
2022-10-30T04:36:33.815Z,98949.44
2022-10-30T04:39:00.669Z,98957.50
2022-10-30T04:41:27.929Z,98947.09
2022-10-30T04:44:02.483Z,98955.28
2022-10-30T04:46:31.904Z,98955.97
2022-10-30T04:49:05.371Z,98947.09
2022-10-30T04:51:31.722Z,98948.59
2022-10-30T04:53:58.664Z,98940.53
2022-10-30T04:56:26.238Z,98939.34
2022-10-30T04:58:53.410Z,98947.91
2022-10-30T05:01:20.164Z,98946.28
2022-10-30T05:03:48.131Z,98946.94
2022-10-30T05:06:24.809Z,98952.97
2022-10-30T05:08:51.319Z,98942.50
2022-10-30T05:11:27.813Z,98932.94
2022-10-30T05:13:55.100Z,98936.84
2022-10-30T05:16:21.466Z,98934.22
2022-10-30T05:18:47.968Z,98940.00
2022-10-30T05:21:14.483Z,98930.50
2022-10-30T05:23:40.932Z,98938.28
2022-10-30T05:26:07.364Z,98929.19
2022-10-30T05:28:34.268Z,98936.25
2022-10-30T05:31:00.583Z,98930.16
2022-10-30T05:33:47.216Z,98932.66
2022-10-30T05:36:13.748Z,98933.84
2022-10-30T05:38:41.002Z,98934.63
2022-10-30T05:41:11.340Z,98928.53
2022-10-30T05:43:37.788Z,98928.69
2022-10-30T05:46:04.198Z,98934.97
2022-10-30T05:48:31.266Z,98935.63
2022-10-30T05:50:57.693Z,98933.63
2022-10-30T05:53:27.418Z,98933.63
2022-10-30T05:55:58.951Z,98926.88
2022-10-30T05:58:29.426Z,98927.81
2022-10-30T06:00:58.128Z,98921.66
2022-10-30T06:03:38.687Z,98927.88
2022-10-30T06:06:05.889Z,98936.66
2022-10-30T06:08:32.225Z,98937.72
2022-10-30T06:11:02.504Z,98937.00
2022-10-30T06:13:36.248Z,98940.41
2022-10-30T06:16:08.708Z,98937.41
2022-10-30T06:19:17.484Z,98939.44
2022-10-30T06:21:45.922Z,98951.31
2022-10-30T06:24:35.242Z,98946.28
2022-10-30T06:27:24.584Z,98957.03
2022-10-30T06:29:51.117Z,98959.38
2022-10-30T06:32:17.479Z,98947.50
2022-10-30T06:34:44.842Z,98956.22
2022-10-30T06:37:12.877Z,98956.03
2022-10-30T06:39:39.796Z,98958.25
2022-10-30T06:42:32.261Z,98966.97
2022-10-30T06:45:08.006Z,98966.91
2022-10-30T06:47:35.563Z,98962.72
2022-10-30T06:50:03.135Z,98966.72
2022-10-30T06:52:30.180Z,98967.38
2022-10-30T06:54:56.506Z,98971.94
2022-10-30T06:57:53.846Z,98966.81
2022-10-30T07:00:46.804Z,98971.19
2022-10-30T07:03:34.717Z,98974.63
2022-10-30T07:06:01.767Z,98970.81
2022-10-30T07:08:28.333Z,98963.47
2022-10-30T07:10:56.779Z,98966.63
2022-10-30T07:13:42.955Z,98959.97
2022-10-30T07:16:29.147Z,98966.06
2022-10-30T07:18:58.232Z,98964.69
2022-10-30T07:21:27.092Z,98959.41
2022-10-30T07:23:53.426Z,98966.69
2022-10-30T07:26:39.412Z,98966.13
2022-10-30T07:29:23.107Z,98959.84
2022-10-30T07:32:11.679Z,98964.50
2022-10-30T07:34:56.779Z,98967.94
2022-10-30T07:37:52.759Z,98956.16
2022-10-30T07:40:20.270Z,98971.59
2022-10-30T07:42:57.071Z,98970.09
2022-10-30T07:45:32.412Z,98973.63
2022-10-30T07:48:17.197Z,98969.03
2022-10-30T07:50:55.718Z,98970.44
2022-10-30T07:53:22.272Z,98972.38
2022-10-30T07:55:49.467Z,98964.72
2022-10-30T07:58:34.459Z,98963.31
2022-10-30T08:01:34.894Z,98967.47
2022-10-30T08:04:21.594Z,98963.47
2022-10-30T08:06:48.009Z,98969.88
2022-10-30T08:09:14.358Z,98965.41
2022-10-30T08:11:40.815Z,98961.03
2022-10-30T08:14:07.323Z,98965.53
2022-10-30T08:16:33.688Z,98971.28
2022-10-30T08:19:00.342Z,98968.84
2022-10-30T08:21:27.272Z,98968.97
2022-10-30T08:23:58.045Z,98967.19
2022-10-30T08:26:27.505Z,98976.03
2022-10-30T08:28:54.234Z,98970.88
2022-10-30T08:31:21.912Z,98975.94
2022-10-30T08:34:20.245Z,98971.13
2022-10-30T08:36:51.479Z,98970.88
2022-10-30T08:39:18.935Z,98978.03
2022-10-30T08:41:52.331Z,98983.41
2022-10-30T08:44:20.017Z,98978.47
2022-10-30T08:47:06.511Z,98981.88
2022-10-30T08:49:32.883Z,98966.19
2022-10-30T08:52:01.366Z,98974.50
2022-10-30T08:54:27.745Z,98969.34
2022-10-30T08:56:54.812Z,98969.16
2022-10-30T08:59:22.619Z,98967.34
2022-10-30T09:01:51.313Z,98962.81
2022-10-30T09:04:18.383Z,98968.81
2022-10-30T09:07:13.582Z,98968.19
2022-10-30T09:10:09.029Z,98965.06
2022-10-30T09:12:36.908Z,98957.94
2022-10-30T09:15:03.736Z,98963.03
2022-10-30T09:17:37.784Z,98963.44
2022-10-30T09:20:04.389Z,98961.53
2022-10-30T09:22:39.688Z,98968.56
2022-10-30T09:25:06.269Z,98960.56
2022-10-30T09:27:55.599Z,98960.72
2022-10-30T09:30:25.162Z,98957.88
2022-10-30T09:32:56.544Z,98962.25
2022-10-30T09:35:30.989Z,98956.38
2022-10-30T09:37:57.665Z,98965.16
2022-10-30T09:40:59.895Z,98963.75
2022-10-30T09:43:29.553Z,98960.19
2022-10-30T09:46:05.197Z,98965.41
2022-10-30T09:48:50.425Z,98963.34
2022-10-30T09:51:38.156Z,98966.78
2022-10-30T09:54:09.085Z,98970.69
2022-10-30T09:56:51.431Z,98963.06
2022-10-30T09:59:17.781Z,98964.31
2022-10-30T10:01:53.994Z,98967.25
2022-10-30T10:04:27.620Z,98964.16
2022-10-30T10:07:22.678Z,98964.06
2022-10-30T10:10:05.464Z,98963.72
2022-10-30T10:12:49.599Z,98964.34
2022-10-30T10:15:28.232Z,98957.75
2022-10-30T10:17:55.145Z,98963.06
2022-10-30T10:20:32.546Z,98970.44
2022-10-30T10:23:03.476Z,98969.00
2022-10-30T10:25:30.914Z,98970.22
2022-10-30T10:27:57.249Z,98974.72
2022-10-30T10:30:24.278Z,98963.72
2022-10-30T10:33:29.610Z,98963.53
2022-10-30T10:36:02.530Z,98959.81
2022-10-30T10:38:38.784Z,98963.69
2022-10-30T10:41:23.836Z,98952.53
2022-10-30T10:44:05.348Z,98953.69
2022-10-30T10:46:31.653Z,98953.25
2022-10-30T10:49:00.999Z,98951.22
2022-10-30T10:51:31.692Z,98954.16
2022-10-30T10:54:00.605Z,98946.63
2022-10-30T10:56:33.683Z,98953.25
2022-10-30T10:59:03.251Z,98949.28
2022-10-30T11:01:36.984Z,98959.25
2022-10-30T11:04:05.547Z,98957.41
2022-10-30T11:06:34.812Z,98961.94
2022-10-30T11:09:19.817Z,98961.94
2022-10-30T11:11:47.007Z,98960.72
2022-10-30T11:14:14.876Z,98962.97
2022-10-30T11:16:56.581Z,98959.97
2022-10-30T11:19:23.090Z,98959.31
2022-10-30T11:21:51.656Z,98961.47
2022-10-30T11:24:27.321Z,98969.69
2022-10-30T11:26:55.126Z,98956.16
2022-10-30T11:29:25.988Z,98949.91
2022-10-30T11:32:01.611Z,98953.09
2022-10-30T11:34:31.176Z,98953.56
2022-10-30T11:36:57.964Z,98950.25
2022-10-30T11:39:25.696Z,98957.00
2022-10-30T11:41:56.813Z,98954.03
2022-10-30T11:44:25.215Z,98953.97
2022-10-30T11:46:51.746Z,98953.34
2022-10-30T11:49:44.922Z,98956.16
2022-10-30T11:52:12.635Z,98963.59
2022-10-30T11:54:40.783Z,98942.19
2022-10-30T11:57:22.763Z,98943.72
2022-10-30T11:59:51.693Z,98948.03
2022-10-30T12:02:22.431Z,98941.59
2022-10-30T12:04:50.237Z,98944.88
2022-10-30T12:07:25.617Z,98938.19
2022-10-30T12:09:51.925Z,98936.72
2022-10-30T12:12:18.247Z,98936.75
2022-10-30T12:14:44.660Z,98938.91
2022-10-30T12:17:14.158Z,98941.66
2022-10-30T12:19:45.222Z,98938.03
2022-10-30T12:22:23.923Z,98937.41
2022-10-30T12:24:50.971Z,98934.94
2022-10-30T12:27:21.392Z,98944.34
2022-10-30T12:30:10.312Z,98934.22
2022-10-30T12:32:52.681Z,98925.06
2022-10-30T12:35:21.784Z,98930.09
2022-10-30T12:37:50.615Z,98927.28
2022-10-30T12:40:21.266Z,98923.38
2022-10-30T12:43:00.882Z,98919.22
2022-10-30T12:45:41.059Z,98913.22
2022-10-30T12:48:10.960Z,98913.69
2022-10-30T12:50:42.853Z,98916.13
2022-10-30T12:53:27.898Z,98911.41
2022-10-30T12:56:03.728Z,98906.88
2022-10-30T12:58:30.428Z,98900.47
2022-10-30T13:01:17.090Z,98893.00
2022-10-30T13:03:50.805Z,98893.66
2022-10-30T13:06:19.105Z,98884.69
2022-10-30T13:09:04.378Z,98896.19
2022-10-30T13:11:36.945Z,98886.28
2022-10-30T13:14:04.371Z,98892.13
2022-10-30T13:16:31.635Z,98884.56
2022-10-30T13:19:00.112Z,98884.22
2022-10-30T13:21:47.741Z,98884.22
2022-10-30T13:24:26.300Z,98880.56
2022-10-30T13:26:56.121Z,98875.09
2022-10-30T13:29:37.475Z,98874.09
2022-10-30T13:32:13.807Z,98873.19
2022-10-30T13:34:55.783Z,98874.41
2022-10-30T13:37:27.204Z,98870.88
2022-10-30T13:40:25.758Z,98869.63
2022-10-30T13:43:01.088Z,98875.78
2022-10-30T13:45:27.508Z,98870.63
2022-10-30T13:48:10.209Z,98872.28
2022-10-30T13:50:55.460Z,98867.44
2022-10-30T13:53:26.228Z,98862.31
2022-10-30T13:55:54.401Z,98862.34
2022-10-30T13:58:26.381Z,98865.44
2022-10-30T14:01:04.689Z,98860.22
2022-10-30T14:03:40.138Z,98870.06
2022-10-30T14:06:13.667Z,98862.31
2022-10-30T14:08:43.277Z,98878.31
2022-10-30T14:11:12.379Z,98868.13
2022-10-30T14:13:46.255Z,98859.34
2022-10-30T14:16:31.250Z,98867.91
2022-10-30T14:18:57.620Z,98862.38
2022-10-30T14:21:29.991Z,98863.47
2022-10-30T14:24:04.047Z,98862.13
2022-10-30T14:26:30.607Z,98863.19
2022-10-30T14:28:57.096Z,98854.88
2022-10-30T14:31:34.039Z,98855.41
2022-10-30T14:34:00.522Z,98858.91
2022-10-30T14:36:46.859Z,98853.47
2022-10-30T14:39:16.150Z,98858.16
2022-10-30T14:41:45.604Z,98859.44
2022-10-30T14:44:12.161Z,98861.97
2022-10-30T14:46:50.359Z,98867.44
2022-10-30T14:49:34.852Z,98865.47
2022-10-30T14:52:20.337Z,98864.84
2022-10-30T14:54:58.952Z,98859.00
2022-10-30T14:59:33.705Z,98862.94
2022-10-30T15:02:00.242Z,98868.91
2022-10-30T15:04:45.481Z,98862.56
2022-10-30T15:07:18.772Z,98864.69
2022-10-30T15:10:08.573Z,98863.78
2022-10-30T15:13:02.345Z,98861.53
2022-10-30T15:15:29.527Z,98870.59
2022-10-30T15:17:58.315Z,98869.69
2022-10-30T15:20:32.293Z,98871.09
2022-10-30T15:23:08.684Z,98879.97
2022-10-30T15:25:45.652Z,98888.88
2022-10-30T15:28:16.864Z,98890.47
2022-10-30T15:30:58.110Z,98883.66
2022-10-30T15:33:24.441Z,98886.66
2022-10-30T15:35:50.741Z,98891.50
2022-10-30T15:38:17.058Z,98883.34
2022-10-30T15:40:43.765Z,98892.31
2022-10-30T15:43:15.671Z,98889.91
2022-10-30T15:45:45.910Z,98894.88
2022-10-30T15:48:23.403Z,98889.84
2022-10-30T15:50:56.002Z,98902.69
2022-10-30T15:53:24.892Z,98905.69
2022-10-30T15:55:51.397Z,98903.78
2022-10-30T15:58:21.511Z,98908.38
2022-10-30T16:00:55.361Z,98898.44
2022-10-30T16:03:22.228Z,98903.84
2022-10-30T16:05:48.779Z,98905.97
2022-10-30T16:08:19.238Z,98910.00
2022-10-30T16:10:46.524Z,98921.13
2022-10-30T16:13:17.799Z,98925.66
2022-10-30T16:15:47.274Z,98917.75
2022-10-30T16:18:16.566Z,98914.31
2022-10-30T16:20:44.199Z,98925.63
2022-10-30T16:23:11.894Z,98935.66
2022-10-30T16:25:44.461Z,98938.41
2022-10-30T16:28:34.399Z,98935.91
2022-10-30T16:31:02.520Z,98943.84
2022-10-30T16:33:30.466Z,98937.19
2022-10-30T16:36:00.322Z,98938.25
2022-10-30T16:38:28.130Z,98943.69
2022-10-30T16:40:55.019Z,98946.19
2022-10-30T16:43:24.483Z,98943.28
2022-10-30T16:45:52.339Z,98941.63
2022-10-30T16:48:27.733Z,98941.19
2022-10-30T16:51:01.596Z,98945.34
2022-10-30T16:53:28.702Z,98945.34
2022-10-30T16:55:56.247Z,98942.47
2022-10-30T16:58:28.043Z,98955.13
2022-10-30T17:00:55.551Z,98950.16
2022-10-30T17:03:28.226Z,98961.78
2022-10-30T17:06:04.386Z,98968.03
2022-10-30T17:08:35.198Z,98958.69
2022-10-30T17:11:06.154Z,98969.50
2022-10-30T17:13:36.050Z,98970.75
2022-10-30T17:16:31.966Z,98972.78
2022-10-30T17:19:21.169Z,98980.72
2022-10-30T17:21:51.872Z,98984.69
2022-10-30T17:24:35.026Z,98985.28
2022-10-30T17:27:03.408Z,98985.03
2022-10-30T17:29:42.074Z,98989.97
2022-10-30T17:32:25.520Z,98989.97
2022-10-30T17:35:00.649Z,98989.13
2022-10-30T17:37:27.699Z,98980.84
2022-10-30T17:39:54.493Z,98996.84
2022-10-30T17:42:21.030Z,98993.88
2022-10-30T17:44:47.884Z,98994.69
2022-10-30T17:47:16.859Z,98998.03
2022-10-30T17:49:44.099Z,99006.72
2022-10-30T17:52:14.983Z,99007.56
2022-10-30T17:54:41.897Z,99006.09
2022-10-30T17:57:12.086Z,99006.09
2022-10-30T17:59:39.437Z,99009.94
2022-10-30T18:02:16.284Z,99001.66
2022-10-30T18:04:44.173Z,99015.00
2022-10-30T18:07:11.574Z,99005.97
2022-10-30T18:09:38.882Z,99007.00
2022-10-30T18:12:06.465Z,99025.69
2022-10-30T18:14:33.338Z,99020.69
2022-10-30T18:17:00.372Z,99025.66
2022-10-30T18:19:27.407Z,99026.88
2022-10-30T18:21:54.730Z,99028.84
2022-10-30T18:24:21.569Z,99023.84
2022-10-30T18:26:48.131Z,99031.03
2022-10-30T18:29:14.812Z,99022.28
2022-10-30T18:31:41.387Z,99027.03
2022-10-30T18:34:14.410Z,99029.50
2022-10-30T18:36:41.368Z,99028.56
2022-10-30T18:39:08.104Z,99027.31
2022-10-30T18:41:36.767Z,99028.56
2022-10-30T18:44:03.627Z,99023.97
2022-10-30T18:46:31.052Z,99027.06
2022-10-30T18:48:57.858Z,99020.22
2022-10-30T18:51:25.597Z,99022.44
2022-10-30T18:53:52.718Z,99024.25
2022-10-30T18:56:23.635Z,99030.41
2022-10-30T18:58:54.759Z,99028.75
2022-10-30T19:01:25.289Z,99036.28
2022-10-30T19:03:51.870Z,99038.00
2022-10-30T19:06:20.248Z,99033.38
2022-10-30T19:08:48.025Z,99034.91
2022-10-30T19:11:18.771Z,99041.59
2022-10-30T19:13:48.887Z,99042.50
2022-10-30T19:16:17.291Z,99047.50
2022-10-30T19:18:44.139Z,99046.56
2022-10-30T19:21:21.242Z,99038.00
2022-10-30T19:23:48.409Z,99045.66
2022-10-30T19:26:16.269Z,99045.38
2022-10-30T19:28:43.812Z,99046.03
2022-10-30T19:31:15.026Z,99048.50
2022-10-30T19:33:42.156Z,99045.94
2022-10-30T19:36:27.382Z,99053.72
2022-10-30T19:38:54.513Z,99049.75
2022-10-30T19:41:21.105Z,99050.31
2022-10-30T19:43:47.845Z,99048.38
2022-10-30T19:46:14.915Z,99056.59
2022-10-30T19:48:58.571Z,99060.50
2022-10-30T19:51:27.225Z,99057.53
2022-10-30T19:53:53.960Z,99069.16
2022-10-30T19:56:21.164Z,99069.25
2022-10-30T19:59:13.722Z,99065.69
2022-10-30T20:01:41.514Z,99068.88
2022-10-30T20:04:08.580Z,99071.28
2022-10-30T20:06:35.309Z,99075.50
2022-10-30T20:09:02.722Z,99070.75
2022-10-30T20:11:29.437Z,99070.66
2022-10-30T20:13:56.102Z,99076.03
2022-10-30T20:16:22.870Z,99069.63
2022-10-30T20:18:50.785Z,99069.44
2022-10-30T20:21:19.228Z,99073.53
2022-10-30T20:23:46.050Z,99075.22
2022-10-30T20:26:18.754Z,99070.19
2022-10-30T20:28:45.190Z,99069.28
2022-10-30T20:31:12.294Z,99074.47
2022-10-30T20:33:38.821Z,99074.81
2022-10-30T20:36:05.747Z,99076.59
2022-10-30T20:38:33.141Z,99074.91
2022-10-30T20:41:00.384Z,99074.19
2022-10-30T20:43:31.741Z,99079.28
2022-10-30T20:45:59.168Z,99074.63
2022-10-30T20:48:26.011Z,99077.50
2022-10-30T20:50:52.836Z,99079.91
2022-10-30T20:53:19.404Z,99080.41
2022-10-30T20:55:45.850Z,99077.41
2022-10-30T20:58:12.420Z,99079.91
2022-10-30T21:00:38.934Z,99082.22
2022-10-30T21:03:06.982Z,99075.44
2022-10-30T21:05:49.837Z,99089.66
2022-10-30T21:08:16.439Z,99077.84
2022-10-30T21:10:42.843Z,99069.13
2022-10-30T21:13:10.728Z,99079.53
2022-10-30T21:15:39.711Z,99083.09
2022-10-30T21:18:06.309Z,99085.69
2022-10-30T21:20:32.707Z,99089.78
2022-10-30T21:23:00.455Z,99087.28
2022-10-30T21:25:26.939Z,99084.63
2022-10-30T21:27:55.710Z,99089.84
2022-10-30T21:30:22.026Z,99095.19
2022-10-30T21:32:48.405Z,99097.00
2022-10-30T21:35:14.884Z,99089.31
2022-10-30T21:37:41.342Z,99093.00
2022-10-30T21:40:08.404Z,99099.31
2022-10-30T21:42:34.814Z,99093.63
2022-10-30T21:45:01.259Z,99093.97
2022-10-30T21:47:28.729Z,99095.69
2022-10-30T21:49:55.229Z,99093.38
2022-10-30T21:52:22.072Z,99096.72
2022-10-30T21:54:48.672Z,99093.38
2022-10-30T21:57:15.053Z,99092.53
2022-10-30T21:59:42.627Z,99096.22
2022-10-30T22:02:13.014Z,99090.53
2022-10-30T22:04:39.419Z,99094.59
2022-10-30T22:07:05.733Z,99088.19
2022-10-30T22:09:32.177Z,99094.28
2022-10-30T22:11:58.704Z,99092.44
2022-10-30T22:14:25.450Z,99091.31
2022-10-30T22:16:51.839Z,99093.78
2022-10-30T22:19:18.182Z,99091.19
2022-10-30T22:21:44.536Z,99095.41
2022-10-30T22:24:12.959Z,99087.91
2022-10-30T22:26:39.262Z,99093.50
2022-10-30T22:29:05.686Z,99083.41
2022-10-30T22:31:32.017Z,99086.59
2022-10-30T22:33:59.277Z,99091.19
2022-10-30T22:36:26.829Z,99096.34
2022-10-30T22:39:00.559Z,99099.13
2022-10-30T22:41:29.934Z,99103.84
2022-10-30T22:44:00.019Z,99105.22
2022-10-30T22:46:27.412Z,99102.69
2022-10-30T22:48:54.198Z,99098.66
2022-10-30T22:51:20.673Z,99096.84
2022-10-30T22:53:48.120Z,99092.81
2022-10-30T22:56:17.437Z,99097.53
2022-10-30T22:58:44.294Z,99096.22
2022-10-30T23:01:10.588Z,99092.00
2022-10-30T23:03:37.086Z,99091.22
2022-10-30T23:06:03.729Z,99084.31
2022-10-30T23:08:30.334Z,99088.38
2022-10-30T23:10:56.802Z,99085.00
2022-10-30T23:13:23.580Z,99085.38
2022-10-30T23:15:50.301Z,99085.88
2022-10-30T23:18:17.036Z,99083.19
2022-10-30T23:20:44.193Z,99080.84
2022-10-30T23:23:10.942Z,99090.25
2022-10-30T23:25:38.111Z,99083.03
2022-10-30T23:28:05.767Z,99082.00
2022-10-30T23:30:32.351Z,99086.41
2022-10-30T23:32:59.016Z,99083.22
2022-10-30T23:35:25.798Z,99090.75
2022-10-30T23:37:52.298Z,99085.91
2022-10-30T23:40:18.754Z,99089.59
2022-10-30T23:42:45.299Z,99086.28
2022-10-30T23:45:11.644Z,99085.25
2022-10-30T23:47:42.524Z,99082.91
2022-10-30T23:50:09.429Z,99092.66
2022-10-30T23:52:35.789Z,99080.56
2022-10-30T23:55:02.311Z,99088.81
2022-10-30T23:57:28.632Z,99081.09
2022-10-30T23:59:54.988Z,99085.63
